Time;durP1;ratioP1;P1;durP2;ratioP2;P2;SDS_P1;SDS_P2;PMS_P1;PMS_P2;Temp;Humidity;BMP_temperature;BMP_pressure;BME280_temperature;BME280_humidity;BME280_pressure;Samples;Min_cycle;Max_cycle;Signal;HPM_P1;HPM_P2
2023/06/01 00:00:28;;;;;;;8.13;2.70;;;;;;;;;;5037670;28;20021;-78
2023/06/01 00:02:54;;;;;;;5.35;3.05;;;;;;;;;;5037701;28;20109;-79
2023/06/01 00:05:20;;;;;;;8.02;3.65;;;;;;;;;;5037533;28;20022;-79
2023/06/01 00:07:46;;;;;;;8.93;3.53;;;;;;;;;;5036974;28;20517;-79
2023/06/01 00:10:13;;;;;;;5.25;3.35;;;;;;;;;;5019873;28;20061;-79
2023/06/01 00:12:38;;;;;;;5.43;2.75;;;;;;;;;;5037215;28;20097;-79
2023/06/01 00:15:05;;;;;;;6.82;3.20;;;;;;;;;;5037135;28;20555;-78
2023/06/01 00:17:31;;;;;;;6.85;3.35;;;;;;;;;;5033448;28;20057;-78
2023/06/01 00:20:00;;;;;;;6.35;3.00;;;;;;;;;;5016058;28;20028;-78
2023/06/01 00:22:28;;;;;;;7.50;3.40;;;;;;;;;;5033986;28;20104;-78
2023/06/01 00:24:54;;;;;;;8.70;3.30;;;;;;;;;;5033961;28;20064;-78
2023/06/01 00:27:20;;;;;;;6.43;3.03;;;;;;;;;;5033456;28;20401;-78
2023/06/01 00:29:46;;;;;;;8.10;3.20;;;;;;;;;;5034012;28;20033;-79
2023/06/01 00:32:12;;;;;;;11.95;3.38;;;;;;;;;;5033639;28;20115;-77
2023/06/01 00:34:38;;;;;;;5.80;3.20;;;;;;;;;;5033317;28;20095;-78
2023/06/01 00:37:05;;;;;;;5.35;3.15;;;;;;;;;;5033363;28;20104;-78
2023/06/01 00:39:31;;;;;;;4.88;3.25;;;;;;;;;;5033493;28;20515;-78
2023/06/01 00:41:57;;;;;;;5.82;3.17;;;;;;;;;;5033425;28;20403;-78
2023/06/01 00:44:23;;;;;;;7.22;3.22;;;;;;;;;;5015705;28;20022;-79
2023/06/01 00:46:51;;;;;;;5.70;3.40;;;;;;;;;;5033573;28;20028;-78
2023/06/01 00:49:16;;;;;;;8.30;3.38;;;;;;;;;;5033125;28;20025;-78
2023/06/01 00:51:43;;;;;;;6.18;2.90;;;;;;;;;;5033401;28;20025;-78
2023/06/01 00:54:09;;;;;;;8.75;3.20;;;;;;;;;;5033569;28;20026;-78
2023/06/01 00:56:36;;;;;;;8.93;3.60;;;;;;;;;;5015536;28;20060;-78
2023/06/01 00:59:02;;;;;;;5.30;3.35;;;;;;;;;;5032800;28;20028;-78
2023/06/01 01:01:28;;;;;;;12.05;3.60;;;;;;;;;;5033390;28;20057;-78
2023/06/01 01:03:57;;;;;;;8.85;3.30;;;;;;;;;;5033297;28;20028;-78
2023/06/01 01:06:45;;;;;;;6.85;3.42;;;;;;;;;;5033394;28;20123;-78
2023/06/01 01:09:14;;;;;;;4.57;3.10;;;;;;;;;;5032976;28;20025;-78
2023/06/01 01:11:41;;;;;;;3.97;3.10;;;;;;;;;;5033001;28;20026;-78
2023/06/01 01:14:20;;;;;;;7.93;3.00;;;;;;;;;;5033125;28;20029;-77
2023/06/01 01:16:49;;;;;;;6.63;3.13;;;;;;;;;;5032971;28;20026;-78
2023/06/01 01:19:34;;;;;;;6.47;3.10;;;;;;;;;;5014510;28;20111;-77
2023/06/01 01:22:19;;;;;;;5.80;3.22;;;;;;;;;;5032986;28;20029;-78
2023/06/01 01:25:03;;;;;;;8.30;3.27;;;;;;;;;;5063794;22;20036;-73
2023/06/01 01:27:40;;;;;;;7.07;3.08;;;;;;;;;;5011149;28;20045;-75
2023/06/01 01:30:07;;;;;;;5.53;2.63;;;;;;;;;;5012998;28;20147;-75
2023/06/01 01:32:35;;;;;;;6.20;3.38;;;;;;;;;;5012990;28;20018;-75
2023/06/01 01:35:01;;;;;;;4.53;2.83;;;;;;;;;;4995399;28;20034;-74
2023/06/01 01:37:27;;;;;;;5.05;3.08;;;;;;;;;;5012000;28;20112;-73
2023/06/01 01:39:53;;;;;;;4.50;3.08;;;;;;;;;;5012987;28;20118;-74
2023/06/01 01:42:19;;;;;;;7.57;3.13;;;;;;;;;;5012846;28;20037;-74
2023/06/01 01:44:46;;;;;;;6.82;3.40;;;;;;;;;;5015239;28;20022;-74
2023/06/01 01:47:16;;;;;;;6.47;2.75;;;;;;;;;;5013864;28;20018;-74
2023/06/01 01:49:44;;;;;;;7.68;2.85;;;;;;;;;;5012776;28;20026;-74
2023/06/01 01:52:10;;;;;;;12.65;4.38;;;;;;;;;;5012397;28;20037;-74
2023/06/01 01:54:42;;;;;;;4.97;3.28;;;;;;;;;;5012358;28;20029;-74
2023/06/01 01:57:08;;;;;;;8.00;3.53;;;;;;;;;;5012015;28;20022;-73
2023/06/01 01:59:36;;;;;;;5.95;3.22;;;;;;;;;;4994323;28;20480;-74
2023/06/01 02:02:02;;;;;;;4.68;3.28;;;;;;;;;;5012250;28;20108;-74
2023/06/01 02:04:28;;;;;;;7.63;3.38;;;;;;;;;;5012074;28;20030;-74
2023/06/01 02:06:54;;;;;;;4.10;2.92;;;;;;;;;;5012459;28;20032;-75
2023/06/01 02:09:20;;;;;;;6.53;3.20;;;;;;;;;;5012218;28;20026;-75
2023/06/01 02:11:46;;;;;;;4.97;3.15;;;;;;;;;;5013054;28;20113;-74
2023/06/01 02:14:12;;;;;;;5.45;3.00;;;;;;;;;;5013608;28;20029;-74
2023/06/01 02:16:39;;;;;;;7.22;3.10;;;;;;;;;;5012425;28;20076;-74
2023/06/01 02:19:05;;;;;;;5.95;2.92;;;;;;;;;;5011145;28;20064;-74
2023/06/01 02:21:31;;;;;;;6.93;3.05;;;;;;;;;;4994411;28;20026;-74
2023/06/01 02:24:04;;;;;;;5.47;3.13;;;;;;;;;;5012060;28;20018;-73
2023/06/01 02:26:30;;;;;;;3.60;2.95;;;;;;;;;;4994259;28;20037;-74
2023/06/01 02:28:56;;;;;;;5.78;3.17;;;;;;;;;;5011143;28;20049;-74
2023/06/01 02:31:23;;;;;;;8.05;3.83;;;;;;;;;;5011803;28;20033;-74
2023/06/01 02:33:50;;;;;;;10.07;3.80;;;;;;;;;;4994121;28;20137;-74
2023/06/01 02:36:16;;;;;;;5.15;3.10;;;;;;;;;;5011645;28;20492;-74
2023/06/01 02:38:42;;;;;;;6.55;2.97;;;;;;;;;;5009683;28;20038;-74
2023/06/01 02:41:08;;;;;;;9.68;3.55;;;;;;;;;;5010873;28;20022;-74
2023/06/01 02:43:38;;;;;;;4.75;3.03;;;;;;;;;;5011814;28;20033;-74
2023/06/01 02:46:04;;;;;;;5.63;3.50;;;;;;;;;;5011521;28;20049;-73
2023/06/01 02:48:30;;;;;;;5.78;3.00;;;;;;;;;;5011083;28;20026;-73
2023/06/01 02:50:56;;;;;;;7.10;3.30;;;;;;;;;;5011683;28;20017;-74
2023/06/01 02:53:22;;;;;;;6.00;3.58;;;;;;;;;;5011550;28;20053;-73
2023/06/01 02:55:48;;;;;;;4.72;3.25;;;;;;;;;;5011551;28;20152;-74
2023/06/01 02:58:16;;;;;;;4.40;3.50;;;;;;;;;;5010686;28;20112;-74
2023/06/01 03:00:45;;;;;;;4.25;3.05;;;;;;;;;;5011144;28;20108;-73
2023/06/01 03:03:11;;;;;;;5.68;3.10;;;;;;;;;;5011411;28;20136;-74
2023/06/01 03:05:37;;;;;;;8.02;3.50;;;;;;;;;;5011514;28;20072;-74
2023/06/01 03:08:05;;;;;;;10.48;3.83;;;;;;;;;;5010562;28;20022;-73
2023/06/01 03:10:31;;;;;;;9.57;3.60;;;;;;;;;;5011430;28;20022;-74
2023/06/01 03:12:57;;;;;;;6.50;3.30;;;;;;;;;;5011174;28;20033;-74
2023/06/01 03:15:24;;;;;;;6.90;3.35;;;;;;;;;;5011375;28;20057;-75
2023/06/01 03:17:50;;;;;;;10.20;4.22;;;;;;;;;;5010792;28;20033;-74
2023/06/01 03:20:16;;;;;;;7.20;3.85;;;;;;;;;;4993555;28;20033;-74
2023/06/01 03:22:42;;;;;;;3.97;3.22;;;;;;;;;;5011382;28;20032;-74
2023/06/01 03:25:09;;;;;;;6.95;3.38;;;;;;;;;;5011027;28;20377;-74
2023/06/01 03:27:35;;;;;;;4.15;3.20;;;;;;;;;;5009650;28;20484;-74
2023/06/01 03:30:02;;;;;;;7.45;3.72;;;;;;;;;;5010339;28;20033;-74
2023/06/01 03:32:28;;;;;;;5.13;2.92;;;;;;;;;;5010564;28;20022;-74
2023/06/01 03:34:54;;;;;;;7.75;3.20;;;;;;;;;;5009862;28;20033;-75
2023/06/01 03:37:20;;;;;;;6.18;3.03;;;;;;;;;;5009596;28;20488;-74
2023/06/01 03:39:47;;;;;;;7.20;3.55;;;;;;;;;;5010061;28;20050;-75
2023/06/01 03:42:13;;;;;;;7.15;3.50;;;;;;;;;;5010175;28;20030;-74
2023/06/01 03:44:42;;;;;;;4.38;2.83;;;;;;;;;;5010194;28;20029;-74
2023/06/01 03:47:08;;;;;;;7.65;3.80;;;;;;;;;;5009512;28;20026;-71
2023/06/01 03:49:34;;;;;;;6.57;3.78;;;;;;;;;;5010125;28;20056;-75
2023/06/01 03:52:00;;;;;;;8.07;4.03;;;;;;;;;;5011934;28;20079;-73
2023/06/01 03:54:26;;;;;;;6.68;2.65;;;;;;;;;;5013838;28;20030;-73
2023/06/01 03:56:52;;;;;;;7.22;3.42;;;;;;;;;;5016021;28;20128;-73
2023/06/01 03:59:18;;;;;;;6.70;3.28;;;;;;;;;;4997184;28;20029;-73
2023/06/01 04:01:45;;;;;;;6.97;3.20;;;;;;;;;;5013325;28;20423;-74
2023/06/01 04:04:12;;;;;;;6.93;2.92;;;;;;;;;;5013288;28;20077;-74
2023/06/01 04:06:38;;;;;;;7.65;3.33;;;;;;;;;;5013174;28;20014;-73
2023/06/01 04:09:06;;;;;;;4.57;3.00;;;;;;;;;;5012599;28;20018;-74
2023/06/01 04:11:36;;;;;;;6.10;3.40;;;;;;;;;;5013479;28;20029;-74
2023/06/01 04:14:02;;;;;;;7.18;3.55;;;;;;;;;;4995460;28;20093;-74
2023/06/01 04:16:28;;;;;;;9.90;4.18;;;;;;;;;;5013191;28;20045;-73
2023/06/01 04:18:54;;;;;;;11.60;3.88;;;;;;;;;;5012563;28;20362;-73
2023/06/01 04:21:21;;;;;;;15.82;4.32;;;;;;;;;;5013273;28;20030;-75
2023/06/01 04:23:48;;;;;;;8.07;3.70;;;;;;;;;;5013100;28;20029;-75
2023/06/01 04:26:14;;;;;;;7.28;3.75;;;;;;;;;;4975068;28;1110681;-75
2023/06/01 04:28:43;;;;;;;9.95;4.63;;;;;;;;;;5013590;28;20026;-75
2023/06/01 04:31:16;;;;;;;8.95;5.00;;;;;;;;;;5014085;28;20022;-74
2023/06/01 04:33:52;;;;;;;9.07;4.68;;;;;;;;;;5014202;28;20391;-74
2023/06/01 04:36:20;;;;;;;8.60;4.40;;;;;;;;;;5013694;28;20097;-74
2023/06/01 04:38:50;;;;;;;9.45;4.25;;;;;;;;;;5013598;28;20399;-76
2023/06/01 04:41:16;;;;;;;9.75;4.88;;;;;;;;;;5013835;28;20036;-74
2023/06/01 04:43:42;;;;;;;7.95;4.28;;;;;;;;;;5013945;28;20029;-75
2023/06/01 04:46:09;;;;;;;6.25;3.90;;;;;;;;;;5013757;28;20026;-74
2023/06/01 04:48:36;;;;;;;11.98;4.05;;;;;;;;;;4997745;28;20022;-75
2023/06/01 04:51:04;;;;;;;8.10;4.20;;;;;;;;;;5015541;28;20029;-75
2023/06/01 04:53:30;;;;;;;8.43;4.00;;;;;;;;;;5014081;28;20042;-75
2023/06/01 04:55:56;;;;;;;7.45;4.18;;;;;;;;;;5013447;28;20034;-75
2023/06/01 04:58:22;;;;;;;7.70;3.88;;;;;;;;;;5013195;28;20467;-76
2023/06/01 05:00:48;;;;;;;5.57;3.40;;;;;;;;;;5013394;28;20026;-75
2023/06/01 05:03:15;;;;;;;10.00;4.20;;;;;;;;;;4995257;28;20107;-75
2023/06/01 05:05:41;;;;;;;9.32;4.47;;;;;;;;;;4995982;28;20022;-75
2023/06/01 05:08:07;;;;;;;6.57;3.97;;;;;;;;;;4995033;28;20029;-76
2023/06/01 05:10:33;;;;;;;10.48;4.35;;;26.00;36.10;;;;;;5013426;28;20080;-75
2023/06/01 05:12:59;;;;;;;8.95;4.63;;;26.80;35.10;;;;;;5013095;28;20459;-74
2023/06/01 05:15:27;;;;;;;10.65;4.97;;;28.00;33.20;;;;;;5012944;28;20057;-74
2023/06/01 05:17:52;;;;;;;10.88;4.47;;;28.50;32.30;;;;;;5012200;28;20033;-76
2023/06/01 05:20:18;;;;;;;10.18;4.00;;;28.20;32.30;;;;;;5013197;28;20400;-75
2023/06/01 05:22:43;;;;;;;7.18;4.05;;;28.80;31.70;;;;;;5012960;28;20554;-76
2023/06/01 05:25:09;;;;;;;8.40;4.50;;;29.30;30.30;;;;;;5012730;28;20116;-77
2023/06/01 05:27:35;;;;;;;6.72;3.38;;;29.70;30.40;;;;;;5009759;28;20522;-76
2023/06/01 05:30:01;;;;;;;8.98;3.90;;;30.40;29.30;;;;;;5009993;28;20477;-77
2023/06/01 05:32:26;;;;;;;9.25;4.15;;;30.90;28.60;;;;;;5002292;28;20022;-77
2023/06/01 05:34:52;;;;;;;8.68;3.50;;;30.90;28.60;;;;;;5013620;28;20480;-77
2023/06/01 05:37:18;;;;;;;7.90;3.58;;;31.10;28.70;;;;;;5012605;28;20030;-77
2023/06/01 05:39:43;;;;;;;7.70;3.08;;;31.50;28.10;;;;;;5013560;28;20826;-76
2023/06/01 05:42:09;;;;;;;4.53;2.55;;;31.80;27.90;;;;;;4995049;28;20569;-76
2023/06/01 05:44:35;;;;;;;11.23;2.53;;;31.40;27.90;;;;;;5012694;28;20024;-76
2023/06/01 05:47:00;;;;;;;8.65;2.90;;;31.70;27.20;;;;;;5012118;28;20058;-76
2023/06/01 05:49:30;;;;;;;10.43;3.35;;;31.40;27.70;;;;;;5012477;28;20026;-77
2023/06/01 05:51:55;;;;;;;6.97;2.60;;;31.40;27.50;;;;;;5012939;28;20403;-77
2023/06/01 05:54:21;;;;;;;5.30;2.83;;;31.40;27.80;;;;;;5013365;28;20030;-77
2023/06/01 05:56:47;;;;;;;5.68;2.53;;;;;;;;;;5012885;28;20037;-77
2023/06/01 05:59:13;;;;;;;8.27;3.10;;;31.80;27.10;;;;;;5012230;28;20034;-77
2023/06/01 06:01:38;;;;;;;5.80;2.50;;;31.80;27.80;;;;;;5012902;28;20067;-77
2023/06/01 06:04:05;;;;;;;5.18;2.67;;;32.10;27.10;;;;;;5011555;28;20030;-77
2023/06/01 06:06:30;;;;;;;5.10;2.70;;;32.40;26.10;;;;;;4994475;28;20060;-77
2023/06/01 06:08:56;;;;;;;7.13;2.67;;;33.20;25.20;;;;;;5011284;28;20049;-78
2023/06/01 06:11:22;;;;;;;6.10;2.72;;;33.10;26.00;;;;;;5009536;28;20033;-77
2023/06/01 06:13:50;;;;;;;5.13;2.80;;;33.20;26.00;;;;;;5010873;28;20030;-77
2023/06/01 06:16:16;;;;;;;7.50;2.85;;;32.90;26.00;;;;;;5010554;28;20026;-77
2023/06/01 06:18:42;;;;;;;7.10;2.60;;;32.60;26.20;;;;;;5010208;28;20029;-77
2023/06/01 06:21:07;;;;;;;12.43;3.00;;;32.70;26.70;;;;;;5012351;28;20053;-78
2023/06/01 06:23:33;;;;;;;5.43;2.38;;;32.40;26.30;;;;;;5011838;28;20392;-77
2023/06/01 06:25:59;;;;;;;9.88;2.88;;;32.70;26.30;;;;;;5012335;28;20484;-77
2023/06/01 06:28:26;;;;;;;6.75;2.60;;;32.50;26.70;;;;;;5012687;28;20069;-78
2023/06/01 06:30:56;;;;;;;7.07;2.88;;;33.10;25.90;;;;;;5013500;28;20026;-78
2023/06/01 06:33:22;;;;;;;4.07;2.55;;;33.00;26.10;;;;;;5013408;28;20112;-78
2023/06/01 06:35:48;;;;;;;9.02;2.70;;;33.70;25.60;;;;;;5012982;28;20099;-77
2023/06/01 06:38:13;;;;;;;6.57;3.00;;;33.50;25.60;;;;;;5011138;28;20080;-76
2023/06/01 06:40:39;;;;;;;4.55;2.72;;;33.30;26.00;;;;;;5010618;28;20022;-76
2023/06/01 06:43:05;;;;;;;5.65;2.30;;;32.60;27.00;;;;;;5010397;28;20381;-76
2023/06/01 06:45:30;;;;;;;7.15;2.92;;;31.50;28.10;;;;;;5010831;28;20053;-76
2023/06/01 06:47:56;;;;;;;8.68;3.65;;;;;;;;;;5011160;28;20476;-75
2023/06/01 06:50:22;;;;;;;5.18;2.67;;;30.30;29.10;;;;;;5011795;28;20052;-76
2023/06/01 06:52:47;;;;;;;7.65;2.80;;;28.90;31.60;;;;;;4993088;28;20538;-76
2023/06/01 06:55:13;;;;;;;9.38;3.40;;;30.10;30.20;;;;;;5009642;28;20111;-76
2023/06/01 06:57:39;;;;;;;7.95;2.72;;;31.10;29.10;;;;;;5010028;28;20022;-76
2023/06/01 07:00:14;;;;;;;9.23;3.10;;;30.50;30.20;;;;;;5011734;28;20034;-76
2023/06/01 07:02:40;;;;;;;5.80;2.85;;;31.10;29.70;;;;;;5013758;28;20120;-76
2023/06/01 07:05:08;;;;;;;8.05;2.92;;;31.40;28.90;;;;;;5013539;28;20018;-76
2023/06/01 07:07:34;;;;;;;7.30;2.47;;;31.70;28.70;;;;;;5009809;28;20093;-76
2023/06/01 07:09:59;;;;;;;7.60;2.67;;;31.60;29.30;;;;;;5011356;28;20022;-76
2023/06/01 07:12:25;;;;;;;6.88;3.10;;;32.40;28.70;;;;;;5008161;28;20029;-75
2023/06/01 07:14:51;;;;;;;3.92;2.55;;;32.90;27.40;;;;;;5009160;28;20096;-76
2023/06/01 07:17:16;;;;;;;12.52;3.00;;;32.00;28.20;;;;;;5007960;28;20053;-75
2023/06/01 07:19:42;;;;;;;8.30;2.85;;;30.60;30.20;;;;;;5010638;28;20026;-76
2023/06/01 07:22:08;;;;;;;5.20;3.05;;;;;;;;;;5008274;28;20054;-76
2023/06/01 07:24:34;;;;;;;11.48;3.15;;;;;;;;;;5001817;28;20026;-76
2023/06/01 07:27:05;;;;;;;5.57;2.72;;;;;;;;;;5039986;22;20068;-80
2023/06/01 07:29:34;;;;;;;8.32;3.08;;;;;;;;;;5047933;28;20036;-79
2023/06/01 07:32:04;;;;;;;6.03;3.30;;;;;;;;;;5025296;28;20113;-80
2023/06/01 07:34:33;;;;;;;7.50;3.05;;;;;;;;;;5047576;28;20079;-79
2023/06/01 07:36:59;;;;;;;6.63;2.85;;;;;;;;;;5034623;28;20406;-78
2023/06/01 07:39:25;;;;;;;11.55;3.20;;;;;;;;;;5031204;28;20057;-78
2023/06/01 07:41:53;;;;;;;4.53;2.65;;;;;;;;;;5033119;28;20079;-78
2023/06/01 07:44:20;;;;;;;8.93;2.97;;;;;;;;;;5014777;28;20021;-79
2023/06/01 07:46:51;;;;;;;6.88;3.00;;;;;;;;;;5031423;28;20079;-78
2023/06/01 07:49:17;;;;;;;6.40;2.90;;;;;;;;;;5032738;28;20022;-78
2023/06/01 07:51:44;;;;;;;7.70;2.65;;;;;;;;;;5034039;28;20029;-78
2023/06/01 07:54:13;;;;;;;4.88;2.83;;;;;;;;;;5035379;28;20057;-78
2023/06/01 07:56:39;;;;;;;7.68;2.45;;;;;;;;;;5035240;28;20488;-79
2023/06/01 07:59:05;;;;;;;11.15;2.67;;;33.40;27.80;;;;;;5033970;28;20101;-79
2023/06/01 08:01:32;;;;;;;4.85;2.70;;;33.20;27.70;;;;;;5034843;28;20021;-78
2023/06/01 08:03:58;;;;;;;8.20;3.15;;;33.50;27.30;;;;;;5017030;28;20057;-79
2023/06/01 08:06:24;;;;;;;5.75;2.78;;;33.30;26.60;;;;;;5034260;28;20048;-79
2023/06/01 08:08:51;;;;;;;5.30;2.75;;;33.20;27.20;;;;;;5016452;28;20123;-79
2023/06/01 08:11:17;;;;;;;4.10;2.20;;;33.80;26.90;;;;;;5034656;28;20052;-79
2023/06/01 08:13:45;;;;;;;5.18;2.10;;;33.70;26.60;;;;;;5034395;28;20025;-79
2023/06/01 08:16:14;;;;;;;7.43;2.38;;;34.20;27.30;;;;;;5016228;28;20480;-79
2023/06/01 08:18:40;;;;;;;10.02;2.85;;;34.80;26.20;;;;;;5034102;28;20029;-78
2023/06/01 08:21:08;;;;;;;4.75;2.58;;;33.50;27.00;;;;;;5034664;28;20484;-79
2023/06/01 08:23:35;;;;;;;4.68;2.92;;;33.50;27.60;;;;;;5034195;28;20368;-78
2023/06/01 08:26:00;;;;;;;7.05;2.58;;;34.20;26.80;;;;;;5033769;28;20028;-79
2023/06/01 08:28:26;;;;;;;7.38;2.80;;;34.20;26.80;;;;;;5033304;28;20026;-79
2023/06/01 08:30:52;;;;;;;7.47;2.90;;;34.00;26.00;;;;;;5033824;28;20021;-79
2023/06/01 08:33:17;;;;;;;10.30;3.30;;;33.70;26.70;;;;;;5034142;28;20076;-79
2023/06/01 08:35:43;;;;;;;10.05;3.13;;;33.40;26.80;;;;;;5034296;28;20029;-80
2023/06/01 08:38:09;;;;;;;9.38;2.83;;;32.90;27.40;;;;;;5032129;28;20032;-79
2023/06/01 08:40:35;;;;;;;4.15;2.33;;;32.60;28.10;;;;;;5033629;28;20075;-78
2023/06/01 08:43:19;;;;;;;8.32;2.90;;;32.80;27.80;;;;;;5033782;28;20060;-79
2023/06/01 08:45:47;;;;;;;8.55;2.95;;;32.30;28.80;;;;;;5015968;28;20080;-78
2023/06/01 08:48:17;;;;;;;8.25;2.50;;;31.90;29.00;;;;;;5017472;28;20075;-78
2023/06/01 08:50:48;;;;;;;4.90;2.53;;;32.30;29.10;;;;;;5036005;28;20052;-78
2023/06/01 08:53:21;;;;;;;6.97;3.20;;;32.30;29.80;;;;;;5034371;28;20045;-78
2023/06/01 08:55:50;;;;;;;5.70;2.30;;;32.80;28.10;;;;;;5033728;28;20021;-78
2023/06/01 08:58:16;;;;;;;5.45;2.55;;;32.20;29.00;;;;;;5033230;28;20033;-78
2023/06/01 09:00:42;;;;;;;5.32;3.20;;;32.40;28.90;;;;;;5033555;28;20025;-78
2023/06/01 09:03:08;;;;;;;7.18;2.90;;;32.10;28.60;;;;;;5033653;28;20022;-79
2023/06/01 09:05:33;;;;;;;7.43;2.50;;;32.00;29.80;;;;;;5033573;28;20032;-78
2023/06/01 09:07:59;;;;;;;5.50;2.83;;;32.10;29.00;;;;;;5032711;28;20037;-78
2023/06/01 09:10:25;;;;;;;6.78;2.63;;;31.60;29.90;;;;;;5033086;28;20025;-78
2023/06/01 09:12:52;;;;;;;4.20;2.45;;;31.80;30.50;;;;;;5033205;28;20029;-79
2023/06/01 09:15:20;;;;;;;3.63;2.47;;;32.10;30.70;;;;;;5033029;28;20364;-79
2023/06/01 09:17:47;;;;;;;8.27;2.95;;;32.40;29.40;;;;;;5032490;28;20104;-78
2023/06/01 09:20:25;;;;;;;5.15;2.50;;;32.30;29.40;;;;;;5032734;28;20058;-78
2023/06/01 09:22:51;;;;;;;5.10;2.75;;;32.40;29.50;;;;;;5015409;28;20033;-79
2023/06/01 09:25:30;;;;;;;7.30;2.60;;;32.00;29.00;;;;;;5032689;28;20100;-78
2023/06/01 09:27:58;;;;;;;4.90;2.53;;;31.60;30.20;;;;;;5032140;28;20040;-78
2023/06/01 09:30:25;;;;;;;6.18;2.13;;;31.90;30.60;;;;;;5014745;28;20069;-78
2023/06/01 09:33:06;;;;;;;9.30;2.00;;;32.30;30.20;;;;;;5032585;28;20032;-78
2023/06/01 09:35:38;;;;;;;6.18;2.10;;;32.50;27.60;;;;;;5032635;28;20460;-78
2023/06/01 09:38:05;;;;;;;6.90;2.38;;;32.10;27.00;;;;;;5031982;28;20027;-78
2023/06/01 09:40:32;;;;;;;5.43;1.98;;;31.90;27.60;;;;;;5032606;28;20377;-78
2023/06/01 09:42:58;;;;;;;7.85;2.25;;;32.00;28.00;;;;;;5014981;28;20048;-78
2023/06/01 09:45:24;;;;;;;7.47;2.22;;;32.20;26.60;;;;;;5032317;28;20471;-78
2023/06/01 09:47:51;;;;;;;3.85;2.00;;;31.80;27.80;;;;;;5031944;28;20018;-78
2023/06/01 09:50:38;;;;;;;6.25;2.85;;;31.70;28.70;;;;;;5032088;28;20083;-78
2023/06/01 09:53:05;;;;;;;4.90;2.22;;;31.50;28.90;;;;;;5014017;28;20021;-78
2023/06/01 09:55:31;;;;;;;4.15;1.90;;;;;;;;;;5032404;28;20107;-77
2023/06/01 09:58:15;;;;;;;4.90;2.17;;;;;;;;;;5031298;28;20068;-78
2023/06/01 10:00:41;;;;;;;3.47;1.85;;;30.20;28.70;;;;;;5032127;28;20105;-78
2023/06/01 10:03:07;;;;;;;5.30;2.08;;;30.00;29.60;;;;;;5032210;28;20450;-78
2023/06/01 10:05:34;;;;;;;3.83;1.90;;;29.60;30.90;;;;;;5032763;28;20095;-78
2023/06/01 10:08:01;;;;;;;6.45;2.28;;;29.90;30.50;;;;;;5031926;28;20057;-77
2023/06/01 10:10:26;;;;;;;8.05;2.58;;;29.90;30.90;;;;;;5014595;28;20025;-77
2023/06/01 10:12:55;;;;;;;5.97;2.20;;;29.60;30.90;;;;;;5032400;28;20104;-78
2023/06/01 10:15:21;;;;;;;6.85;2.15;;;29.00;30.90;;;;;;5014364;28;20091;-78
2023/06/01 10:17:49;;;;;;;6.53;3.13;;;29.00;32.50;;;;;;5031779;28;20511;-68
2023/06/01 10:20:15;;;;;;;7.85;2.55;;;28.90;35.90;;;;;;5031692;28;20022;-68
2023/06/01 10:22:42;;;;;;;5.32;2.25;;;;;;;;;;5031775;28;20044;-69
2023/06/01 10:25:11;;;;;;;5.45;2.55;;;;;;;;;;5031852;28;20036;-68
2023/06/01 10:27:41;;;;;;;9.48;2.90;;;;;;;;;;5030493;28;20040;-68
2023/06/01 10:30:09;;;;;;;4.35;2.40;;;;;;;;;;5012073;28;20029;-68
2023/06/01 10:32:37;;;;;;;10.85;3.30;;;;;;;;;;5031496;28;20030;-68
2023/06/01 10:35:07;;;;;;;7.13;3.17;;;;;;;;;;5031379;28;20035;-70
2023/06/01 10:37:33;;;;;;;17.35;8.35;;;;;;;;;;5030566;28;20033;-69
2023/06/01 10:40:17;;;;;;;47.35;27.83;;;;;;;;;;5031015;28;20452;-68
2023/06/01 10:42:44;;;;;;;38.67;21.92;;;;;;;;;;5038645;28;20487;-68
2023/06/01 10:45:48;;;;;;;27.10;15.45;;;;;;;;;;5051132;28;20043;-68
2023/06/01 10:48:14;;;;;;;32.85;16.70;;;;;;;;;;4941793;29;20122;-69
2023/06/01 10:50:41;;;;;;;17.65;8.57;;;;;;;;;;4950186;29;20027;-68
2023/06/01 10:53:27;;;;;;;17.45;10.45;;;;;;;;;;4998398;28;20033;-69
2023/06/01 10:56:12;;;;;;;10.32;4.35;;;;;;;;;;5046891;28;20541;-69
2023/06/01 10:58:38;;;;;;;17.95;7.15;;;;;;;;;;5041623;28;20458;-69
2023/06/01 11:01:06;;;;;;;9.25;4.97;;;;;;;;;;5032446;28;20064;-70
2023/06/01 11:03:45;;;;;;;20.70;8.57;;;;;;;;;;5031127;28;20025;-69
2023/06/01 11:06:31;;;;;;;8.15;4.28;;;;;;;;;;5030817;28;20357;-69
2023/06/01 11:08:58;;;;;;;8.75;3.25;;;;;;;;;;5030238;28;20030;-69
2023/06/01 11:11:45;;;;;;;6.68;3.42;;;;;;;;;;5013030;28;20148;-69
2023/06/01 11:14:12;;;;;;;6.60;3.50;;;;;;;;;;5030179;28;20116;-69
2023/06/01 11:16:38;;;;;;;10.88;3.60;;;;;;;;;;5028893;28;20029;-69
2023/06/01 11:19:06;;;;;;;13.57;2.78;;;;;;;;;;5028440;28;20029;-69
2023/06/01 11:21:33;;;;;;;13.65;7.68;;;;;;;;;;5028707;28;20495;-69
2023/06/01 11:24:00;;;;;;;14.68;6.97;;;;;;;;;;5030110;28;20033;-70
2023/06/01 11:26:45;;;;;;;12.48;5.78;;;;;;;;;;5029908;28;20517;-68
2023/06/01 11:29:11;;;;;;;8.57;3.60;;;;;;;;;;5029105;28;20109;-69
2023/06/01 11:31:54;;;;;;;10.80;4.93;;;;;;;;;;5030777;28;20480;-70
2023/06/01 11:34:29;;;;;;;15.68;7.05;;;;;;;;;;5021502;28;20029;-70
2023/06/01 11:36:57;;;;;;;8.23;3.60;;;;;;;;;;5047356;28;20048;-69
2023/06/01 11:39:24;;;;;;;15.55;4.78;;;;;;;;;;5043657;28;20025;-69
2023/06/01 11:42:10;;;;;;;12.73;3.92;;;;;;;;;;5030710;28;20495;-70
2023/06/01 11:44:43;;;;;;;5.32;2.97;;;;;;;;;;5013758;28;20049;-69
2023/06/01 11:47:10;;;;;;;11.73;4.47;;;;;;;;;;5029854;28;20170;-69
2023/06/01 11:49:49;;;;;;;8.05;3.67;;;;;;;;;;5030522;28;20041;-68
2023/06/01 11:52:16;;;;;;;8.60;2.90;;;;;;;;;;5030447;28;20100;-68
2023/06/01 11:54:42;;;;;;;5.10;2.72;;;;;;;;;;5030599;28;20025;-68
2023/06/01 11:57:08;;;;;;;8.70;4.40;;;;;;;;;;5029468;28;20095;-68
2023/06/01 11:59:40;;;;;;;5.85;3.00;;;;;;;;;;5030349;28;20460;-68
2023/06/01 12:02:25;;;;;;;7.97;3.28;;;;;;;;;;5030511;28;20021;-68
2023/06/01 12:04:55;;;;;;;5.40;2.78;;;;;;;;;;5030406;28;20022;-68
2023/06/01 12:07:21;;;;;;;6.18;2.80;;;;;;;;;;5029465;28;20032;-68
2023/06/01 12:09:47;;;;;;;4.57;2.10;;;;;;;;;;5030432;28;20104;-68
2023/06/01 12:12:13;;;;;;;8.65;3.97;;;;;;;;;;5030760;28;20038;-70
2023/06/01 12:14:41;;;;;;;5.03;2.53;;;;;;;;;;5034087;28;20087;-68
2023/06/01 12:17:07;;;;;;;8.65;3.67;;;;;;;;;;5033121;28;20021;-69
2023/06/01 12:19:35;;;;;;;6.70;2.92;;;;;;;;;;5033872;28;20029;-68
2023/06/01 12:22:01;;;;;;;10.30;3.08;;;;;;;;;;5017095;28;20025;-69
2023/06/01 12:24:32;;;;;;;19.42;7.13;;;;;;;;;;5049763;28;20032;-68
2023/06/01 12:26:59;;;;;;;9.48;3.60;;;;;;;;;;5034324;28;20033;-68
2023/06/01 12:29:37;;;;;;;14.88;4.95;;;;;;;;;;5033663;28;20482;-70
2023/06/01 12:32:04;;;;;;;13.63;4.70;;;;;;;;;;5033817;28;20026;-68
2023/06/01 12:34:30;;;;;;;6.40;3.60;;;;;;;;;;5033374;28;20438;-69
2023/06/01 12:36:56;;;;;;;5.28;3.50;;;;;;;;;;5040516;28;20037;-77
2023/06/01 12:39:39;;;;;;;6.55;3.88;;;;;;;;;;5053153;28;20029;-76
2023/06/01 12:42:06;;;;;;;5.60;3.35;;;;;;;;;;5054036;28;20032;-77
2023/06/01 12:44:33;;;;;;;7.55;3.63;;;;;;;;;;5054149;28;20063;-78
2023/06/01 12:47:00;;;;;;;5.50;3.50;;;;;;;;;;5054375;28;20025;-78
2023/06/01 12:49:27;;;;;;;10.57;3.63;;;;;;;;;;5054134;28;20024;-76
2023/06/01 12:51:53;;;;;;;5.20;3.60;;;;;;;;;;5055118;28;20028;-77
2023/06/01 12:54:19;;;;;;;4.25;3.05;;;;;;;;;;5056623;28;20033;-78
2023/06/01 12:56:48;;;;;;;9.60;3.60;;;;;;;;;;5067241;28;20075;-79
2023/06/01 12:59:14;;;;;;;7.10;3.38;;;;;;;;;;5069106;28;20032;-79
2023/06/01 13:01:40;;;;;;;6.57;4.00;;;;;;;;;;5068078;28;20547;-78
2023/06/01 13:04:07;;;;;;;9.88;3.70;;;;;;;;;;5069497;28;20394;-79
2023/06/01 13:06:34;;;;;;;8.07;3.97;;;;;;;;;;5066301;28;20044;-80
2023/06/01 13:09:00;;;;;;;8.07;4.35;;;;;;;;;;5059938;28;20031;-81
2023/06/01 13:11:27;;;;;;;7.40;4.57;;;;;;;;;;5060596;28;20021;-79
2023/06/01 13:13:53;;;;;;;6.45;3.95;;;;;;;;;;5060946;28;20490;-79
2023/06/01 13:16:19;;;;;;;7.60;4.15;;;;;;;;;;5044928;28;20532;-79
2023/06/01 13:18:47;;;;;;;5.10;4.10;;;;;;;;;;5061406;28;20025;-79
2023/06/01 13:21:14;;;;;;;15.80;4.65;;;;;;;;;;5042880;28;20025;-79
2023/06/01 13:23:40;;;;;;;7.75;3.90;;;;;;;;;;5041540;28;20086;-79
2023/06/01 13:26:07;;;;;;;8.93;4.63;;;;;;;;;;5060190;28;20021;-79
2023/06/01 13:28:33;;;;;;;8.98;5.03;;;;;;;;;;5074703;23;20419;-76
2023/06/01 13:31:00;;;;;;;6.70;4.70;;;;;;;;;;5053086;28;20103;-76
2023/06/01 13:33:26;;;;;;;8.02;4.60;;;;;;;;;;5052863;28;20036;-77
2023/06/01 13:35:52;;;;;;;7.53;4.50;;;;;;;;;;5035075;28;20407;-76
2023/06/01 13:38:18;;;;;;;7.57;4.28;;;;;;;;;;5040492;28;20033;-77
2023/06/01 13:40:53;;;;;;;9.30;5.43;;;;;;;;;;5032824;28;20021;-76
2023/06/01 13:43:20;;;;;;;10.18;4.97;;;;;;;;;;5014909;28;20028;-75
2023/06/01 13:45:46;;;;;;;9.80;5.15;;;;;;;;;;5032372;28;20029;-76
2023/06/01 13:48:15;;;;;;;13.05;5.40;;;;;;;;;;5031771;28;20421;-75
2023/06/01 13:50:41;;;;;;;10.38;5.05;;;;;;;;;;5032348;28;20101;-76
2023/06/01 13:53:10;;;;;;;7.22;5.20;;;;;;;;;;5032297;28;20036;-75
2023/06/01 13:55:38;;;;;;;9.60;5.28;;;;;;;;;;5032683;28;20113;-76
2023/06/01 13:58:07;;;;;;;9.25;5.35;;;;;;;;;;5031672;28;20018;-76
2023/06/01 14:00:33;;;;;;;10.05;5.82;;;;;;;;;;5031522;28;20029;-76
2023/06/01 14:02:59;;;;;;;12.77;5.95;;;;;;;;;;5032425;28;20099;-76
2023/06/01 14:05:25;;;;;;;8.98;4.75;;;;;;;;;;5014899;28;20031;-76